sensor_id;sensor_type;location;lat;lon;timestamp;pressure;altitude;pressure_sealevel;temperature;humidity
73453;BME280;61687;56.232;43.854;2023-07-13T00:00:36;99667.09;;;12.13;80.89
73453;BME280;61687;56.232;43.854;2023-07-13T00:03:03;99671.81;;;12.09;81.03
73453;BME280;61687;56.232;43.854;2023-07-13T00:05:30;99673.00;;;12.04;81.25
73453;BME280;61687;56.232;43.854;2023-07-13T00:07:56;99674.59;;;12.01;81.26
73453;BME280;61687;56.232;43.854;2023-07-13T00:10:22;99671.41;;;11.99;81.44
73453;BME280;61687;56.232;43.854;2023-07-13T00:12:48;99675.72;;;11.97;81.47
73453;BME280;61687;56.232;43.854;2023-07-13T00:15:19;99673.75;;;11.90;81.53
73453;BME280;61687;56.232;43.854;2023-07-13T00:17:50;99674.53;;;11.87;81.60
73453;BME280;61687;56.232;43.854;2023-07-13T00:20:16;99675.72;;;11.86;81.64
73453;BME280;61687;56.232;43.854;2023-07-13T00:22:42;99678.06;;;11.84;81.86
73453;BME280;61687;56.232;43.854;2023-07-13T00:25:10;99674.53;;;11.83;81.84
73453;BME280;61687;56.232;43.854;2023-07-13T00:27:36;99678.44;;;11.82;81.82
73453;BME280;61687;56.232;43.854;2023-07-13T00:30:03;99676.13;;;11.81;81.93
73453;BME280;61687;56.232;43.854;2023-07-13T00:32:31;99684.34;;;11.77;81.97
73453;BME280;61687;56.232;43.854;2023-07-13T00:34:59;99676.09;;;11.77;81.99
73453;BME280;61687;56.232;43.854;2023-07-13T00:37:26;99685.09;;;11.78;82.12
73453;BME280;61687;56.232;43.854;2023-07-13T00:39:52;99680.41;;;11.74;82.22
73453;BME280;61687;56.232;43.854;2023-07-13T00:42:18;99694.91;;;11.71;82.32
73453;BME280;61687;56.232;43.854;2023-07-13T00:45:07;99691.78;;;11.69;82.25
73453;BME280;61687;56.232;43.854;2023-07-13T00:47:33;99693.34;;;11.70;82.24
73453;BME280;61687;56.232;43.854;2023-07-13T00:50:00;99690.59;;;11.70;82.18
73453;BME280;61687;56.232;43.854;2023-07-13T00:52:27;99690.22;;;11.68;82.10
73453;BME280;61687;56.232;43.854;2023-07-13T00:54:54;99692.56;;;11.66;82.07
73453;BME280;61687;56.232;43.854;2023-07-13T00:57:21;99691.75;;;11.66;82.24
73453;BME280;61687;56.232;43.854;2023-07-13T00:59:54;99685.88;;;11.64;82.21
73453;BME280;61687;56.232;43.854;2023-07-13T01:02:21;99694.13;;;11.64;82.26
73453;BME280;61687;56.232;43.854;2023-07-13T01:04:48;99698.84;;;11.63;82.28
73453;BME280;61687;56.232;43.854;2023-07-13T01:07:15;99692.56;;;11.59;82.62
73453;BME280;61687;56.232;43.854;2023-07-13T01:09:41;99692.19;;;11.57;82.45
73453;BME280;61687;56.232;43.854;2023-07-13T01:12:07;99692.94;;;11.57;82.48
73453;BME280;61687;56.232;43.854;2023-07-13T01:14:33;99698.44;;;11.61;82.38
73453;BME280;61687;56.232;43.854;2023-07-13T01:17:02;99690.59;;;11.63;82.37
73453;BME280;61687;56.232;43.854;2023-07-13T01:19:41;99687.44;;;11.65;82.53
73453;BME280;61687;56.232;43.854;2023-07-13T01:22:12;99694.13;;;11.67;82.37
73453;BME280;61687;56.232;43.854;2023-07-13T01:24:40;99701.19;;;11.68;82.34
73453;BME280;61687;56.232;43.854;2023-07-13T01:27:09;99704.31;;;11.70;82.24
73453;BME280;61687;56.232;43.854;2023-07-13T01:29:37;99698.47;;;11.72;82.34
73453;BME280;61687;56.232;43.854;2023-07-13T01:32:21;99699.25;;;11.76;82.21
73453;BME280;61687;56.232;43.854;2023-07-13T01:34:49;99688.66;;;11.82;82.01
73453;BME280;61687;56.232;43.854;2023-07-13T01:37:16;99684.75;;;11.83;82.09
73453;BME280;61687;56.232;43.854;2023-07-13T01:39:42;99687.47;;;11.86;82.13
73453;BME280;61687;56.232;43.854;2023-07-13T01:42:08;99692.59;;;11.88;82.09
73453;BME280;61687;56.232;43.854;2023-07-13T01:44:34;99687.09;;;11.88;81.96
73453;BME280;61687;56.232;43.854;2023-07-13T01:47:02;99685.91;;;11.89;81.98
73453;BME280;61687;56.232;43.854;2023-07-13T01:49:28;99687.88;;;11.88;81.98
73453;BME280;61687;56.232;43.854;2023-07-13T01:51:54;99698.84;;;11.92;81.99
73453;BME280;61687;56.232;43.854;2023-07-13T01:54:20;99703.56;;;11.95;82.02
73453;BME280;61687;56.232;43.854;2023-07-13T01:56:46;99700.81;;;11.99;81.97
73453;BME280;61687;56.232;43.854;2023-07-13T01:59:11;99691.44;;;12.04;81.85
73453;BME280;61687;56.232;43.854;2023-07-13T02:01:37;99696.53;;;12.09;81.67
73453;BME280;61687;56.232;43.854;2023-07-13T02:04:03;99691.81;;;12.13;81.49
73453;BME280;61687;56.232;43.854;2023-07-13T02:06:33;99688.69;;;12.14;81.47
73453;BME280;61687;56.232;43.854;2023-07-13T02:08:58;99686.34;;;12.16;81.49
73453;BME280;61687;56.232;43.854;2023-07-13T02:11:24;99680.81;;;12.20;81.39
73453;BME280;61687;56.232;43.854;2023-07-13T02:13:51;99683.97;;;12.22;81.35
73453;BME280;61687;56.232;43.854;2023-07-13T02:16:17;99681.22;;;12.26;81.35
73453;BME280;61687;56.232;43.854;2023-07-13T02:18:44;99675.72;;;12.29;81.40
73453;BME280;61687;56.232;43.854;2023-07-13T02:21:09;99679.25;;;12.34;81.25
73453;BME280;61687;56.232;43.854;2023-07-13T02:23:35;99674.53;;;12.38;81.23
73453;BME280;61687;56.232;43.854;2023-07-13T02:26:04;99672.56;;;12.42;81.30
73453;BME280;61687;56.232;43.854;2023-07-13T02:28:33;99666.66;;;12.47;81.00
73453;BME280;61687;56.232;43.854;2023-07-13T02:31:09;99660.38;;;12.50;80.62
73453;BME280;61687;56.232;43.854;2023-07-13T02:33:36;99665.88;;;12.54;80.58
73453;BME280;61687;56.232;43.854;2023-07-13T02:36:02;99666.63;;;12.54;80.42
73453;BME280;61687;56.232;43.854;2023-07-13T02:38:29;99671.75;;;12.56;80.47
73453;BME280;61687;56.232;43.854;2023-07-13T02:40:55;99663.47;;;12.59;80.45
73453;BME280;61687;56.232;43.854;2023-07-13T02:43:21;99664.28;;;12.64;80.32
73453;BME280;61687;56.232;43.854;2023-07-13T02:45:47;99672.09;;;12.69;80.15
73453;BME280;61687;56.232;43.854;2023-07-13T02:48:14;99672.06;;;12.80;79.94
73453;BME280;61687;56.232;43.854;2023-07-13T02:50:40;99671.22;;;12.90;79.82
73453;BME280;61687;56.232;43.854;2023-07-13T02:53:05;99671.22;;;12.94;79.41
73453;BME280;61687;56.232;43.854;2023-07-13T02:55:31;99668.47;;;12.94;79.25
73453;BME280;61687;56.232;43.854;2023-07-13T02:57:57;99670.81;;;12.99;79.28
73453;BME280;61687;56.232;43.854;2023-07-13T03:00:23;99674.31;;;13.07;79.16
73453;BME280;61687;56.232;43.854;2023-07-13T03:02:49;99665.63;;;13.12;78.93
73453;BME280;61687;56.232;43.854;2023-07-13T03:05:16;99669.56;;;13.14;78.79
73453;BME280;61687;56.232;43.854;2023-07-13T03:07:43;99671.88;;;13.20;78.72
73453;BME280;61687;56.232;43.854;2023-07-13T03:10:11;99671.06;;;13.23;78.36
73453;BME280;61687;56.232;43.854;2023-07-13T03:12:43;99671.06;;;13.26;78.21
73453;BME280;61687;56.232;43.854;2023-07-13T03:15:17;99679.66;;;13.36;78.07
73453;BME280;61687;56.232;43.854;2023-07-13T03:17:44;99676.56;;;13.30;77.90
73453;BME280;61687;56.232;43.854;2023-07-13T03:20:10;99677.69;;;13.36;77.80
73453;BME280;61687;56.232;43.854;2023-07-13T03:22:36;99674.09;;;13.47;77.64
73453;BME280;61687;56.232;43.854;2023-07-13T03:25:02;99681.53;;;13.57;77.32
73453;BME280;61687;56.232;43.854;2023-07-13T03:27:30;99677.91;;;13.67;77.12
73453;BME280;61687;56.232;43.854;2023-07-13T03:29:56;99684.13;;;13.79;76.63
73453;BME280;61687;56.232;43.854;2023-07-13T03:32:22;99691.91;;;13.91;76.25
73453;BME280;61687;56.232;43.854;2023-07-13T03:34:48;99680.84;;;13.98;76.03
73453;BME280;61687;56.232;43.854;2023-07-13T03:37:14;99679.91;;;14.12;75.81
73453;BME280;61687;56.232;43.854;2023-07-13T03:39:40;99684.97;;;14.21;75.35
73453;BME280;61687;56.232;43.854;2023-07-13T03:42:07;99684.47;;;14.34;74.75
73453;BME280;61687;56.232;43.854;2023-07-13T03:44:34;99686.41;;;14.37;74.43
73453;BME280;61687;56.232;43.854;2023-07-13T03:47:00;99688.34;;;14.40;74.12
73453;BME280;61687;56.232;43.854;2023-07-13T03:49:26;99679.63;;;14.45;73.87
73453;BME280;61687;56.232;43.854;2023-07-13T03:51:53;99680.25;;;14.60;73.94
73453;BME280;61687;56.232;43.854;2023-07-13T03:54:18;99683.69;;;14.68;73.45
73453;BME280;61687;56.232;43.854;2023-07-13T03:56:44;99680.81;;;14.82;73.41
73453;BME280;61687;56.232;43.854;2023-07-13T03:59:11;99680.72;;;14.90;73.29
73453;BME280;61687;56.232;43.854;2023-07-13T04:01:38;99682.59;;;15.00;73.15
73453;BME280;61687;56.232;43.854;2023-07-13T04:04:04;99680.22;;;14.98;73.08
73453;BME280;61687;56.232;43.854;2023-07-13T04:06:32;99681.38;;;15.01;72.98
73453;BME280;61687;56.232;43.854;2023-07-13T04:09:00;99678.19;;;15.02;73.02
73453;BME280;61687;56.232;43.854;2023-07-13T04:11:29;99679.75;;;15.03;72.91
73453;BME280;61687;56.232;43.854;2023-07-13T04:13:57;99683.34;;;15.00;72.66
73453;BME280;61687;56.232;43.854;2023-07-13T04:16:24;99675.88;;;15.01;72.39
73453;BME280;61687;56.232;43.854;2023-07-13T04:18:51;99675.03;;;15.04;72.65
73453;BME280;61687;56.232;43.854;2023-07-13T04:21:20;99675.38;;;15.10;72.71
73453;BME280;61687;56.232;43.854;2023-07-13T04:23:46;99672.53;;;15.13;72.10
73453;BME280;61687;56.232;43.854;2023-07-13T04:26:12;99684.69;;;15.20;71.29
73453;BME280;61687;56.232;43.854;2023-07-13T04:28:38;99679.44;;;15.29;70.79
73453;BME280;61687;56.232;43.854;2023-07-13T04:31:04;99687.88;;;15.45;70.24
73453;BME280;61687;56.232;43.854;2023-07-13T04:33:30;99684.44;;;15.65;69.82
73453;BME280;61687;56.232;43.854;2023-07-13T04:35:56;99692.22;;;15.74;69.93
73453;BME280;61687;56.232;43.854;2023-07-13T04:38:26;99689.56;;;15.94;69.44
73453;BME280;61687;56.232;43.854;2023-07-13T04:40:59;99693.34;;;16.04;69.41
73453;BME280;61687;56.232;43.854;2023-07-13T04:43:26;99695.78;;;15.98;69.10
73453;BME280;61687;56.232;43.854;2023-07-13T04:45:52;99692.31;;;15.94;69.39
73453;BME280;61687;56.232;43.854;2023-07-13T04:48:19;99685.69;;;15.88;69.80
73453;BME280;61687;56.232;43.854;2023-07-13T04:50:45;99683.44;;;15.79;69.57
73453;BME280;61687;56.232;43.854;2023-07-13T04:53:11;99686.84;;;15.63;69.35
73453;BME280;61687;56.232;43.854;2023-07-13T04:55:38;99681.38;;;15.59;69.11
73453;BME280;61687;56.232;43.854;2023-07-13T04:58:04;99682.38;;;15.73;69.37
73453;BME280;61687;56.232;43.854;2023-07-13T05:00:31;99687.25;;;15.89;69.21
73453;BME280;61687;56.232;43.854;2023-07-13T05:02:58;99694.41;;;16.10;68.80
73453;BME280;61687;56.232;43.854;2023-07-13T05:05:25;99697.00;;;16.21;67.51
73453;BME280;61687;56.232;43.854;2023-07-13T05:07:52;99695.31;;;16.27;67.12
73453;BME280;61687;56.232;43.854;2023-07-13T05:10:18;99692.88;;;16.53;67.13
73453;BME280;61687;56.232;43.854;2023-07-13T05:12:45;99692.13;;;16.73;66.40
73453;BME280;61687;56.232;43.854;2023-07-13T05:15:11;99687.34;;;16.94;66.70
73453;BME280;61687;56.232;43.854;2023-07-13T05:17:37;99680.97;;;16.97;66.19
73453;BME280;61687;56.232;43.854;2023-07-13T05:20:06;99689.28;;;16.97;66.27
73453;BME280;61687;56.232;43.854;2023-07-13T05:22:32;99682.16;;;16.99;65.75
73453;BME280;61687;56.232;43.854;2023-07-13T05:25:04;99689.13;;;17.04;64.88
73453;BME280;61687;56.232;43.854;2023-07-13T05:27:31;99691.91;;;17.04;64.68
73453;BME280;61687;56.232;43.854;2023-07-13T05:29:57;99689.78;;;17.12;64.16
73453;BME280;61687;56.232;43.854;2023-07-13T05:32:22;99685.56;;;17.24;64.20
73453;BME280;61687;56.232;43.854;2023-07-13T05:34:48;99676.25;;;17.34;63.24
73453;BME280;61687;56.232;43.854;2023-07-13T05:37:14;99683.47;;;17.48;63.30
73453;BME280;61687;56.232;43.854;2023-07-13T05:39:40;99681.91;;;17.47;62.15
73453;BME280;61687;56.232;43.854;2023-07-13T05:42:06;99681.09;;;17.47;61.59
73453;BME280;61687;56.232;43.854;2023-07-13T05:44:32;99671.94;;;17.50;62.52
73453;BME280;61687;56.232;43.854;2023-07-13T05:46:58;99670.91;;;17.60;62.53
73453;BME280;61687;56.232;43.854;2023-07-13T05:49:24;99675.94;;;17.65;62.76
73453;BME280;61687;56.232;43.854;2023-07-13T05:51:50;99674.13;;;17.75;62.50
73453;BME280;61687;56.232;43.854;2023-07-13T05:54:15;99669.44;;;17.72;62.19
73453;BME280;61687;56.232;43.854;2023-07-13T05:56:42;99677.16;;;17.64;60.51
73453;BME280;61687;56.232;43.854;2023-07-13T05:59:08;99675.06;;;17.68;61.36
73453;BME280;61687;56.232;43.854;2023-07-13T06:01:33;99670.81;;;17.80;60.76
73453;BME280;61687;56.232;43.854;2023-07-13T06:03:59;99664.59;;;17.93;60.75
73453;BME280;61687;56.232;43.854;2023-07-13T06:06:25;99667.44;;;18.22;60.34
73453;BME280;61687;56.232;43.854;2023-07-13T06:08:51;99656.97;;;18.59;60.11
73453;BME280;61687;56.232;43.854;2023-07-13T06:11:20;99662.22;;;18.83;59.25
73453;BME280;61687;56.232;43.854;2023-07-13T06:13:46;99650.03;;;18.94;59.17
73453;BME280;61687;56.232;43.854;2023-07-13T06:16:13;99657.22;;;18.78;59.19
73453;BME280;61687;56.232;43.854;2023-07-13T06:18:40;99657.59;;;18.51;60.18
73453;BME280;61687;56.232;43.854;2023-07-13T06:21:13;99653.31;;;18.33;60.38
73453;BME280;61687;56.232;43.854;2023-07-13T06:23:40;99657.84;;;18.27;60.39
73453;BME280;61687;56.232;43.854;2023-07-13T06:26:07;99654.19;;;18.30;59.88
73453;BME280;61687;56.232;43.854;2023-07-13T06:28:34;99657.25;;;18.49;59.46
73453;BME280;61687;56.232;43.854;2023-07-13T06:31:01;99651.22;;;18.37;59.39
73453;BME280;61687;56.232;43.854;2023-07-13T06:33:27;99655.78;;;18.44;58.94
73453;BME280;61687;56.232;43.854;2023-07-13T06:35:53;99652.84;;;18.35;58.72
73453;BME280;61687;56.232;43.854;2023-07-13T06:38:21;99662.22;;;18.41;58.54
73453;BME280;61687;56.232;43.854;2023-07-13T06:40:47;99658.00;;;18.49;58.40
73453;BME280;61687;56.232;43.854;2023-07-13T06:43:13;99654.53;;;18.62;58.38
73453;BME280;61687;56.232;43.854;2023-07-13T06:45:45;99652.84;;;18.64;58.95
73453;BME280;61687;56.232;43.854;2023-07-13T06:48:18;99657.88;;;18.69;59.16
73453;BME280;61687;56.232;43.854;2023-07-13T06:50:45;99671.66;;;18.86;58.92
73453;BME280;61687;56.232;43.854;2023-07-13T06:53:12;99656.94;;;18.89;58.35
73453;BME280;61687;56.232;43.854;2023-07-13T06:55:39;99661.69;;;18.88;57.25
73453;BME280;61687;56.232;43.854;2023-07-13T06:58:06;99648.44;;;18.80;57.82
73453;BME280;61687;56.232;43.854;2023-07-13T07:00:32;99656.41;;;18.65;57.53
73453;BME280;61687;56.232;43.854;2023-07-13T07:02:58;99662.63;;;18.69;58.03
73453;BME280;61687;56.232;43.854;2023-07-13T07:05:24;99676.03;;;18.57;58.06
73453;BME280;61687;56.232;43.854;2023-07-13T07:07:51;99671.09;;;18.19;58.21
73453;BME280;61687;56.232;43.854;2023-07-13T07:10:18;99668.84;;;17.97;59.43
73453;BME280;61687;56.232;43.854;2023-07-13T07:12:45;99670.94;;;17.77;59.60
73453;BME280;61687;56.232;43.854;2023-07-13T07:15:12;99680.53;;;17.55;60.09
73453;BME280;61687;56.232;43.854;2023-07-13T07:17:38;99678.34;;;17.47;60.62
73453;BME280;61687;56.232;43.854;2023-07-13T07:20:05;99678.09;;;17.57;61.07
73453;BME280;61687;56.232;43.854;2023-07-13T07:22:31;99671.88;;;17.86;60.62
73453;BME280;61687;56.232;43.854;2023-07-13T07:24:57;99684.97;;;18.19;60.39
73453;BME280;61687;56.232;43.854;2023-07-13T07:27:24;99682.50;;;18.38;59.07
73453;BME280;61687;56.232;43.854;2023-07-13T07:29:50;99681.53;;;18.44;58.65
73453;BME280;61687;56.232;43.854;2023-07-13T07:32:16;99688.91;;;18.64;58.54
73453;BME280;61687;56.232;43.854;2023-07-13T07:34:42;99691.09;;;18.56;58.23
73453;BME280;61687;56.232;43.854;2023-07-13T07:37:13;99689.75;;;18.48;57.22
73453;BME280;61687;56.232;43.854;2023-07-13T07:39:40;99690.66;;;18.28;57.65
73453;BME280;61687;56.232;43.854;2023-07-13T07:42:06;99695.00;;;18.29;58.18
73453;BME280;61687;56.232;43.854;2023-07-13T07:44:33;99694.47;;;18.35;58.17
73453;BME280;61687;56.232;43.854;2023-07-13T07:47:00;99689.44;;;18.29;58.63
73453;BME280;61687;56.232;43.854;2023-07-13T07:49:26;99688.97;;;18.18;58.59
73453;BME280;61687;56.232;43.854;2023-07-13T07:51:52;99703.50;;;18.06;59.02
73453;BME280;61687;56.232;43.854;2023-07-13T07:54:18;99703.81;;;17.91;59.39
73453;BME280;61687;56.232;43.854;2023-07-13T07:56:44;99701.25;;;18.00;60.06
73453;BME280;61687;56.232;43.854;2023-07-13T07:59:10;99705.59;;;18.01;59.17
73453;BME280;61687;56.232;43.854;2023-07-13T08:01:36;99712.41;;;17.97;59.16
73453;BME280;61687;56.232;43.854;2023-07-13T08:04:02;99704.97;;;17.94;59.22
73453;BME280;61687;56.232;43.854;2023-07-13T08:06:29;99704.34;;;17.86;59.63
73453;BME280;61687;56.232;43.854;2023-07-13T08:08:55;99701.91;;;17.71;60.00
73453;BME280;61687;56.232;43.854;2023-07-13T08:11:22;99705.56;;;17.52;60.80
73453;BME280;61687;56.232;43.854;2023-07-13T08:13:49;99712.75;;;17.29;61.58
73453;BME280;61687;56.232;43.854;2023-07-13T08:16:16;99709.59;;;17.10;62.52
73453;BME280;61687;56.232;43.854;2023-07-13T08:18:41;99720.16;;;17.15;63.48
73453;BME280;61687;56.232;43.854;2023-07-13T08:21:08;99723.41;;;17.30;63.18
73453;BME280;61687;56.232;43.854;2023-07-13T08:23:35;99709.75;;;17.40;63.12
73453;BME280;61687;56.232;43.854;2023-07-13T08:26:01;99708.56;;;17.57;62.69
73453;BME280;61687;56.232;43.854;2023-07-13T08:28:28;99708.19;;;17.76;62.45
73453;BME280;61687;56.232;43.854;2023-07-13T08:30:54;99704.88;;;17.97;62.07
73453;BME280;61687;56.232;43.854;2023-07-13T08:33:21;99706.28;;;18.06;61.64
73453;BME280;61687;56.232;43.854;2023-07-13T08:35:50;99709.94;;;18.19;60.78
73453;BME280;61687;56.232;43.854;2023-07-13T08:38:17;99702.53;;;18.29;59.94
73453;BME280;61687;56.232;43.854;2023-07-13T08:40:45;99705.72;;;18.44;59.97
73453;BME280;61687;56.232;43.854;2023-07-13T08:43:20;99705.63;;;18.48;60.13
73453;BME280;61687;56.232;43.854;2023-07-13T08:48:31;99707.88;;;18.53;59.11
73453;BME280;61687;56.232;43.854;2023-07-13T08:51:04;99711.75;;;18.55;59.12
73453;BME280;61687;56.232;43.854;2023-07-13T08:53:39;99707.28;;;18.45;58.87
73453;BME280;61687;56.232;43.854;2023-07-13T08:56:11;99706.56;;;18.11;60.41
73453;BME280;61687;56.232;43.854;2023-07-13T08:58:41;99702.44;;;17.83;61.87
73453;BME280;61687;56.232;43.854;2023-07-13T09:01:17;99708.84;;;17.63;62.83
73453;BME280;61687;56.232;43.854;2023-07-13T09:04:18;99712.25;;;17.34;62.42
73453;BME280;61687;56.232;43.854;2023-07-13T09:07:04;99710.81;;;17.09;62.52
73453;BME280;61687;56.232;43.854;2023-07-13T09:14:45;99717.56;;;16.84;63.92
73453;BME280;61687;56.232;43.854;2023-07-13T09:17:17;99719.56;;;16.84;64.07
73453;BME280;61687;56.232;43.854;2023-07-13T09:19:47;99716.75;;;16.87;64.30
73453;BME280;61687;56.232;43.854;2023-07-13T09:22:18;99721.66;;;17.00;63.93
73453;BME280;61687;56.232;43.854;2023-07-13T09:27:29;99714.09;;;17.57;62.46
73453;BME280;61687;56.232;43.854;2023-07-13T09:30:21;99714.69;;;17.85;61.32
73453;BME280;61687;56.232;43.854;2023-07-13T09:32:52;99714.41;;;18.13;60.64
73453;BME280;61687;56.232;43.854;2023-07-13T09:35:28;99720.00;;;18.59;59.63
73453;BME280;61687;56.232;43.854;2023-07-13T09:38:20;99713.88;;;18.94;58.09
73453;BME280;61687;56.232;43.854;2023-07-13T09:41:04;99708.91;;;18.42;59.54
73453;BME280;61687;56.232;43.854;2023-07-13T09:43:34;99710.09;;;18.12;60.75
73453;BME280;61687;56.232;43.854;2023-07-13T09:46:14;99719.88;;;17.83;61.28
73453;BME280;61687;56.232;43.854;2023-07-13T09:48:45;99713.97;;;17.65;62.49
73453;BME280;61687;56.232;43.854;2023-07-13T09:51:14;99724.50;;;17.53;63.23
73453;BME280;61687;56.232;43.854;2023-07-13T09:53:42;99733.22;;;17.35;63.07
73453;BME280;61687;56.232;43.854;2023-07-13T09:56:22;99727.03;;;17.07;62.19
73453;BME280;61687;56.232;43.854;2023-07-13T09:58:49;99724.91;;;16.95;62.66
73453;BME280;61687;56.232;43.854;2023-07-13T10:01:15;99725.97;;;16.81;62.00
73453;BME280;61687;56.232;43.854;2023-07-13T10:03:52;99725.16;;;16.80;62.76
73453;BME280;61687;56.232;43.854;2023-07-13T10:06:21;99722.19;;;16.91;62.35
73453;BME280;61687;56.232;43.854;2023-07-13T10:08:52;99725.03;;;17.28;61.93
73453;BME280;61687;56.232;43.854;2023-07-13T10:11:24;99721.84;;;17.66;60.38
73453;BME280;61687;56.232;43.854;2023-07-13T10:14:02;99728.72;;;18.11;59.35
73453;BME280;61687;56.232;43.854;2023-07-13T10:16:31;99730.66;;;18.61;58.44
73453;BME280;61687;56.232;43.854;2023-07-13T10:19:03;99726.84;;;18.84;57.55
73453;BME280;61687;56.232;43.854;2023-07-13T10:21:38;99729.09;;;18.89;57.25
73453;BME280;61687;56.232;43.854;2023-07-13T10:24:24;99722.75;;;18.88;57.84
73453;BME280;61687;56.232;43.854;2023-07-13T10:29:37;99718.47;;;18.71;58.58
73453;BME280;61687;56.232;43.854;2023-07-13T10:32:10;99726.50;;;18.52;57.70
73453;BME280;61687;56.232;43.854;2023-07-13T10:34:37;99729.47;;;18.45;58.29
73453;BME280;61687;56.232;43.854;2023-07-13T10:37:05;99736.31;;;18.40;59.05
73453;BME280;61687;56.232;43.854;2023-07-13T10:39:35;99726.53;;;18.36;59.29
73453;BME280;61687;56.232;43.854;2023-07-13T10:42:05;99731.84;;;18.30;59.54
73453;BME280;61687;56.232;43.854;2023-07-13T10:44:33;99725.69;;;18.22;60.50
73453;BME280;61687;56.232;43.854;2023-07-13T10:47:02;99728.19;;;18.16;60.98
73453;BME280;61687;56.232;43.854;2023-07-13T10:49:33;99735.38;;;18.14;60.76
73453;BME280;61687;56.232;43.854;2023-07-13T10:52:01;99729.69;;;18.05;60.47
73453;BME280;61687;56.232;43.854;2023-07-13T10:54:32;99733.47;;;17.94;60.63
73453;BME280;61687;56.232;43.854;2023-07-13T10:59:34;99733.22;;;17.88;60.72
73453;BME280;61687;56.232;43.854;2023-07-13T11:04:43;99732.47;;;18.05;61.17
73453;BME280;61687;56.232;43.854;2023-07-13T11:07:26;99740.66;;;18.25;59.84
73453;BME280;61687;56.232;43.854;2023-07-13T11:09:55;99738.59;;;18.29;59.06
73453;BME280;61687;56.232;43.854;2023-07-13T11:19:54;99733.56;;;18.70;57.71
73453;BME280;61687;56.232;43.854;2023-07-13T11:22:42;99729.09;;;18.59;57.37
73453;BME280;61687;56.232;43.854;2023-07-13T11:28:16;99734.44;;;18.37;58.26
73453;BME280;61687;56.232;43.854;2023-07-13T11:33:27;99736.34;;;18.24;58.81
73453;BME280;61687;56.232;43.854;2023-07-13T11:38:38;99744.91;;;18.13;58.89
73453;BME280;61687;56.232;43.854;2023-07-13T11:41:10;99744.75;;;18.04;59.58
73453;BME280;61687;56.232;43.854;2023-07-13T11:43:39;99750.44;;;17.80;59.81
73453;BME280;61687;56.232;43.854;2023-07-13T11:46:17;99744.88;;;17.63;60.07
73453;BME280;61687;56.232;43.854;2023-07-13T11:48:46;99751.28;;;17.40;60.78
73453;BME280;61687;56.232;43.854;2023-07-13T11:51:23;99758.69;;;17.06;60.84
73453;BME280;61687;56.232;43.854;2023-07-13T11:53:53;99760.59;;;16.89;60.87
73453;BME280;61687;56.232;43.854;2023-07-13T11:56:19;99753.91;;;16.86;61.48
73453;BME280;61687;56.232;43.854;2023-07-13T11:58:49;99764.63;;;16.84;61.42
73453;BME280;61687;56.232;43.854;2023-07-13T12:01:21;99775.66;;;16.64;60.97
73453;BME280;61687;56.232;43.854;2023-07-13T12:03:48;99767.63;;;16.50;61.77
73453;BME280;61687;56.232;43.854;2023-07-13T12:08:49;99770.19;;;16.37;62.62
73453;BME280;61687;56.232;43.854;2023-07-13T12:11:17;99757.09;;;16.41;62.16
73453;BME280;61687;56.232;43.854;2023-07-13T12:13:44;99755.34;;;16.51;61.56
73453;BME280;61687;56.232;43.854;2023-07-13T12:16:23;99760.78;;;16.58;61.13
73453;BME280;61687;56.232;43.854;2023-07-13T12:18:53;99751.69;;;16.57;61.42
73453;BME280;61687;56.232;43.854;2023-07-13T12:21:19;99750.56;;;16.75;61.72
73453;BME280;61687;56.232;43.854;2023-07-13T12:23:48;99747.97;;;16.88;61.40
73453;BME280;61687;56.232;43.854;2023-07-13T12:26:17;99744.25;;;16.98;61.39
73453;BME280;61687;56.232;43.854;2023-07-13T12:28:54;99741.88;;;17.17;60.55
73453;BME280;61687;56.232;43.854;2023-07-13T12:33:58;99740.69;;;18.71;56.46
73453;BME280;61687;56.232;43.854;2023-07-13T12:36:24;99733.94;;;19.96;54.02
73453;BME280;61687;56.232;43.854;2023-07-13T12:38:51;99737.97;;;21.32;51.01
73453;BME280;61687;56.232;43.854;2023-07-13T12:41:17;99735.97;;;21.33;48.95
73453;BME280;61687;56.232;43.854;2023-07-13T12:43:45;99732.72;;;21.02;49.63
73453;BME280;61687;56.232;43.854;2023-07-13T12:46:19;99736.06;;;20.75;51.12
73453;BME280;61687;56.232;43.854;2023-07-13T12:48:53;99740.00;;;20.29;51.75
73453;BME280;61687;56.232;43.854;2023-07-13T12:51:25;99741.91;;;19.81;53.32
73453;BME280;61687;56.232;43.854;2023-07-13T12:54:15;99741.75;;;19.20;54.22
73453;BME280;61687;56.232;43.854;2023-07-13T12:56:42;99749.34;;;18.73;55.39
73453;BME280;61687;56.232;43.854;2023-07-13T12:59:19;99748.03;;;18.31;56.20
73453;BME280;61687;56.232;43.854;2023-07-13T13:01:46;99743.53;;;18.05;57.17
73453;BME280;61687;56.232;43.854;2023-07-13T13:04:15;99739.00;;;17.78;58.56
73453;BME280;61687;56.232;43.854;2023-07-13T13:06:41;99748.50;;;17.60;59.25
73453;BME280;61687;56.232;43.854;2023-07-13T13:09:13;99757.91;;;17.46;60.22
73453;BME280;61687;56.232;43.854;2023-07-13T13:11:40;99755.59;;;17.24;60.71
73453;BME280;61687;56.232;43.854;2023-07-13T13:14:06;99762.44;;;16.96;61.66
73453;BME280;61687;56.232;43.854;2023-07-13T13:16:48;99763.47;;;16.62;62.42
73453;BME280;61687;56.232;43.854;2023-07-13T13:19:27;99768.41;;;16.26;63.91
73453;BME280;61687;56.232;43.854;2023-07-13T13:21:55;99754.03;;;16.11;64.55
73453;BME280;61687;56.232;43.854;2023-07-13T13:24:24;99762.22;;;15.91;65.54
73453;BME280;61687;56.232;43.854;2023-07-13T13:26:53;99761.53;;;15.83;65.84
73453;BME280;61687;56.232;43.854;2023-07-13T13:29:21;99767.00;;;15.87;66.26
73453;BME280;61687;56.232;43.854;2023-07-13T13:31:50;99764.16;;;15.94;66.08
73453;BME280;61687;56.232;43.854;2023-07-13T13:34:18;99755.81;;;15.98;66.34
73453;BME280;61687;56.232;43.854;2023-07-13T13:36:45;99756.69;;;16.19;65.94